sensor_id;sensor_type;location;lat;lon;timestamp;pressure;altitude;pressure_sealevel;temperature;humidity
12101;BME280;6113;42.678;23.334;2022-07-10T00:00:17;94695.41;;;17.48;100.00
12101;BME280;6113;42.678;23.334;2022-07-10T00:02:47;94705.88;;;17.71;100.00
12101;BME280;6113;42.678;23.334;2022-07-10T00:05:14;94706.63;;;17.66;100.00
12101;BME280;6113;42.678;23.334;2022-07-10T00:07:41;94687.88;;;17.59;100.00
12101;BME280;6113;42.678;23.334;2022-07-10T00:10:08;94706.03;;;17.90;100.00
12101;BME280;6113;42.678;23.334;2022-07-10T00:12:35;94697.59;;;17.71;100.00
12101;BME280;6113;42.678;23.334;2022-07-10T00:15:02;94702.59;;;17.78;100.00
12101;BME280;6113;42.678;23.334;2022-07-10T00:17:29;94697.59;;;17.71;100.00
12101;BME280;6113;42.678;23.334;2022-07-10T00:19:57;94698.56;;;17.79;100.00
12101;BME280;6113;42.678;23.334;2022-07-10T00:22:24;94698.84;;;17.76;100.00
12101;BME280;6113;42.678;23.334;2022-07-10T00:24:51;94690.53;;;17.81;100.00
12101;BME280;6113;42.678;23.334;2022-07-10T00:27:18;94699.09;;;17.72;100.00
12101;BME280;6113;42.678;23.334;2022-07-10T00:29:45;94675.84;;;17.68;100.00
12101;BME280;6113;42.678;23.334;2022-07-10T00:32:12;94687.31;;;17.72;100.00
12101;BME280;6113;42.678;23.334;2022-07-10T00:34:39;94671.09;;;17.63;100.00
12101;BME280;6113;42.678;23.334;2022-07-10T00:37:07;94684.81;;;17.74;100.00
12101;BME280;6113;42.678;23.334;2022-07-10T00:39:33;94687.13;;;17.64;100.00
12101;BME280;6113;42.678;23.334;2022-07-10T00:42:07;94692.56;;;17.81;100.00
12101;BME280;6113;42.678;23.334;2022-07-10T00:44:35;94660.84;;;17.58;100.00
12101;BME280;6113;42.678;23.334;2022-07-10T00:47:03;94683.34;;;17.62;100.00
12101;BME280;6113;42.678;23.334;2022-07-10T00:49:30;94665.38;;;17.44;100.00
12101;BME280;6113;42.678;23.334;2022-07-10T00:51:58;94670.16;;;17.44;100.00
12101;BME280;6113;42.678;23.334;2022-07-10T00:54:27;94673.44;;;17.32;100.00
12101;BME280;6113;42.678;23.334;2022-07-10T00:56:55;94675.69;;;17.38;100.00
12101;BME280;6113;42.678;23.334;2022-07-10T00:59:23;94675.41;;;17.37;100.00
12101;BME280;6113;42.678;23.334;2022-07-10T01:01:50;94665.94;;;17.32;100.00
12101;BME280;6113;42.678;23.334;2022-07-10T01:04:17;94661.69;;;17.26;100.00
12101;BME280;6113;42.678;23.334;2022-07-10T01:06:44;94661.69;;;17.26;100.00
12101;BME280;6113;42.678;23.334;2022-07-10T01:09:11;94672.69;;;17.26;100.00
12101;BME280;6113;42.678;23.334;2022-07-10T01:11:39;94647.19;;;17.14;100.00
12101;BME280;6113;42.678;23.334;2022-07-10T01:14:06;94661.44;;;17.13;100.00
12101;BME280;6113;42.678;23.334;2022-07-10T01:16:34;94665.69;;;17.14;100.00
12101;BME280;6113;42.678;23.334;2022-07-10T01:19:00;94664.66;;;17.22;100.00
12101;BME280;6113;42.678;23.334;2022-07-10T01:21:30;94657.66;;;17.27;100.00
12101;BME280;6113;42.678;23.334;2022-07-10T01:23:57;94661.94;;;17.28;100.00
12101;BME280;6113;42.678;23.334;2022-07-10T01:26:25;94667.94;;;17.21;100.00
12101;BME280;6113;42.678;23.334;2022-07-10T01:28:53;94668.91;;;17.23;100.00
12101;BME280;6113;42.678;23.334;2022-07-10T01:31:24;94657.16;;;17.23;100.00
12101;BME280;6113;42.678;23.334;2022-07-10T01:33:52;94654.91;;;17.27;100.00
12101;BME280;6113;42.678;23.334;2022-07-10T01:36:19;94645.91;;;17.21;100.00
12101;BME280;6113;42.678;23.334;2022-07-10T01:38:47;94652.66;;;17.20;100.00
12101;BME280;6113;42.678;23.334;2022-07-10T01:41:14;94647.16;;;17.20;100.00
12101;BME280;6113;42.678;23.334;2022-07-10T01:43:41;94632.16;;;17.21;100.00
12101;BME280;6113;42.678;23.334;2022-07-10T01:46:10;94640.69;;;17.28;100.00
12101;BME280;6113;42.678;23.334;2022-07-10T01:48:38;94629.69;;;17.28;100.00
12101;BME280;6113;42.678;23.334;2022-07-10T01:51:06;94635.66;;;17.38;100.00
12101;BME280;6113;42.678;23.334;2022-07-10T01:53:34;94638.91;;;17.36;100.00
12101;BME280;6113;42.678;23.334;2022-07-10T01:56:04;94628.16;;;17.33;100.00
12101;BME280;6113;42.678;23.334;2022-07-10T01:58:32;94631.94;;;17.08;100.00
12101;BME280;6113;42.678;23.334;2022-07-10T02:00:59;94627.94;;;17.03;100.00
12101;BME280;6113;42.678;23.334;2022-07-10T02:03:26;94643.44;;;17.12;100.00
12101;BME280;6113;42.678;23.334;2022-07-10T02:06:13;94620.22;;;17.02;100.00
12101;BME280;6113;42.678;23.334;2022-07-10T02:08:40;94634.41;;;17.22;100.00
12101;BME280;6113;42.678;23.334;2022-07-10T02:11:08;94622.44;;;17.09;100.00
12101;BME280;6113;42.678;23.334;2022-07-10T02:13:37;94597.44;;;17.07;100.00
12101;BME280;6113;42.678;23.334;2022-07-10T02:16:05;94602.22;;;17.01;100.00
12101;BME280;6113;42.678;23.334;2022-07-10T02:18:32;94636.41;;;17.22;100.00
12101;BME280;6113;42.678;23.334;2022-07-10T02:20:58;94629.16;;;17.30;100.00
12101;BME280;6113;42.678;23.334;2022-07-10T02:23:25;94628.41;;;17.24;100.00
12101;BME280;6113;42.678;23.334;2022-07-10T02:25:52;94627.91;;;17.20;100.00
12101;BME280;6113;42.678;23.334;2022-07-10T02:28:20;94612.44;;;17.06;100.00
12101;BME280;6113;42.678;23.334;2022-07-10T02:30:47;94618.66;;;17.23;100.00
12101;BME280;6113;42.678;23.334;2022-07-10T02:33:14;94628.16;;;17.22;100.00
12101;BME280;6113;42.678;23.334;2022-07-10T02:35:40;94621.66;;;17.25;100.00
12101;BME280;6113;42.678;23.334;2022-07-10T02:38:07;94621.66;;;17.14;100.00
12101;BME280;6113;42.678;23.334;2022-07-10T02:40:34;94605.97;;;16.98;100.00
12101;BME280;6113;42.678;23.334;2022-07-10T02:43:01;94627.69;;;17.07;100.00
12101;BME280;6113;42.678;23.334;2022-07-10T02:45:29;94629.94;;;17.03;100.00
12101;BME280;6113;42.678;23.334;2022-07-10T02:47:56;94621.72;;;16.92;100.00
12101;BME280;6113;42.678;23.334;2022-07-10T02:50:22;94633.94;;;17.13;100.00
12101;BME280;6113;42.678;23.334;2022-07-10T02:52:49;94630.91;;;17.22;100.00
12101;BME280;6113;42.678;23.334;2022-07-10T02:55:16;94635.91;;;17.29;100.00
12101;BME280;6113;42.678;23.334;2022-07-10T02:57:43;94652.19;;;17.16;100.00
12101;BME280;6113;42.678;23.334;2022-07-10T03:00:11;94649.94;;;17.09;100.00
12101;BME280;6113;42.678;23.334;2022-07-10T03:02:39;94642.47;;;16.98;100.00
12101;BME280;6113;42.678;23.334;2022-07-10T03:05:07;94645.47;;;16.89;100.00
12101;BME280;6113;42.678;23.334;2022-07-10T03:07:34;94645.72;;;16.97;100.00
12101;BME280;6113;42.678;23.334;2022-07-10T03:10:01;94655.19;;;17.07;100.00
12101;BME280;6113;42.678;23.334;2022-07-10T03:12:27;94650.44;;;17.13;100.00
12101;BME280;6113;42.678;23.334;2022-07-10T03:14:54;94595.78;;;16.60;100.00
12101;BME280;6113;42.678;23.334;2022-07-10T03:17:21;94651.19;;;17.08;100.00
12101;BME280;6113;42.678;23.334;2022-07-10T03:19:49;94660.97;;;17.09;100.00
12101;BME280;6113;42.678;23.334;2022-07-10T03:22:16;94663.66;;;17.20;100.00
12101;BME280;6113;42.678;23.334;2022-07-10T03:24:43;94660.91;;;17.20;100.00
12101;BME280;6113;42.678;23.334;2022-07-10T03:27:12;94653.69;;;17.17;100.00
12101;BME280;6113;42.678;23.334;2022-07-10T03:29:39;94662.41;;;17.21;100.00
12101;BME280;6113;42.678;23.334;2022-07-10T03:32:06;94672.66;;;17.37;100.00
12101;BME280;6113;42.678;23.334;2022-07-10T03:34:33;94647.94;;;17.15;100.00
12101;BME280;6113;42.678;23.334;2022-07-10T03:37:02;94665.19;;;17.21;100.00
12101;BME280;6113;42.678;23.334;2022-07-10T03:39:29;94658.19;;;17.31;100.00
12101;BME280;6113;42.678;23.334;2022-07-10T03:41:56;94661.94;;;17.33;100.00
12101;BME280;6113;42.678;23.334;2022-07-10T03:44:22;94651.69;;;17.34;100.00
12101;BME280;6113;42.678;23.334;2022-07-10T03:46:49;94663.44;;;17.29;100.00
12101;BME280;6113;42.678;23.334;2022-07-10T03:49:16;94645.16;;;17.26;100.00
12101;BME280;6113;42.678;23.334;2022-07-10T03:51:43;94631.41;;;17.20;100.00
12101;BME280;6113;42.678;23.334;2022-07-10T03:54:11;94657.13;;;17.44;100.00
12101;BME280;6113;42.678;23.334;2022-07-10T03:56:38;94657.09;;;17.55;100.00
12101;BME280;6113;42.678;23.334;2022-07-10T03:59:22;94656.84;;;17.53;100.00
12101;BME280;6113;42.678;23.334;2022-07-10T04:01:49;94627.63;;;17.39;100.00
12101;BME280;6113;42.678;23.334;2022-07-10T04:04:16;94648.06;;;17.60;100.00
12101;BME280;6113;42.678;23.334;2022-07-10T04:06:42;94648.84;;;17.55;100.00
12101;BME280;6113;42.678;23.334;2022-07-10T04:09:11;94650.09;;;17.54;100.00
12101;BME280;6113;42.678;23.334;2022-07-10T04:11:37;94626.91;;;17.34;100.00
12101;BME280;6113;42.678;23.334;2022-07-10T04:14:04;94631.38;;;17.37;100.00
12101;BME280;6113;42.678;23.334;2022-07-10T04:16:31;94627.06;;;17.57;100.00
12101;BME280;6113;42.678;23.334;2022-07-10T04:18:58;94625.78;;;17.64;100.00
12101;BME280;6113;42.678;23.334;2022-07-10T04:21:24;94636.22;;;17.82;100.00
12101;BME280;6113;42.678;23.334;2022-07-10T04:23:51;94636.78;;;17.69;100.00
12101;BME280;6113;42.678;23.334;2022-07-10T04:26:19;94625.91;;;17.93;100.00
12101;BME280;6113;42.678;23.334;2022-07-10T04:28:46;94627.66;;;17.91;100.00
12101;BME280;6113;42.678;23.334;2022-07-10T04:31:13;94622.91;;;17.86;100.00
12101;BME280;6113;42.678;23.334;2022-07-10T04:33:40;94635.72;;;17.78;100.00
12101;BME280;6113;42.678;23.334;2022-07-10T04:36:07;94613.66;;;17.83;100.00
12101;BME280;6113;42.678;23.334;2022-07-10T04:38:34;94613.41;;;17.87;100.00
12101;BME280;6113;42.678;23.334;2022-07-10T04:41:00;94608.88;;;17.89;100.00
12101;BME280;6113;42.678;23.334;2022-07-10T04:43:29;94630.72;;;17.82;100.00
12101;BME280;6113;42.678;23.334;2022-07-10T04:45:56;94629.22;;;17.81;100.00
12101;BME280;6113;42.678;23.334;2022-07-10T04:48:23;94623.47;;;17.73;100.00
12101;BME280;6113;42.678;23.334;2022-07-10T04:50:50;94624.94;;;17.85;100.00
12101;BME280;6113;42.678;23.334;2022-07-10T04:53:17;94623.47;;;17.73;100.00
12101;BME280;6113;42.678;23.334;2022-07-10T04:55:44;94638.03;;;17.68;100.00
12101;BME280;6113;42.678;23.334;2022-07-10T04:58:11;94608.72;;;17.71;100.00
12101;BME280;6113;42.678;23.334;2022-07-10T05:00:39;94615.34;;;17.97;100.00
12101;BME280;6113;42.678;23.334;2022-07-10T05:03:06;94630.41;;;18.36;99.03
12101;BME280;6113;42.678;23.334;2022-07-10T05:05:32;94632.91;;;18.34;97.40
12101;BME280;6113;42.678;23.334;2022-07-10T05:07:59;94623.19;;;18.28;98.81
12101;BME280;6113;42.678;23.334;2022-07-10T05:10:26;94612.84;;;18.39;97.01
12101;BME280;6113;42.678;23.334;2022-07-10T05:12:53;94618.41;;;18.34;96.47
12101;BME280;6113;42.678;23.334;2022-07-10T05:15:20;94619.34;;;18.42;96.28
12101;BME280;6113;42.678;23.334;2022-07-10T05:17:48;94540.56;;;17.82;95.70
12101;BME280;6113;42.678;23.334;2022-07-10T05:20:15;94620.91;;;18.32;97.14
12101;BME280;6113;42.678;23.334;2022-07-10T05:22:42;94623.19;;;18.63;96.15
12101;BME280;6113;42.678;23.334;2022-07-10T05:25:09;94619.28;;;18.77;95.58
12101;BME280;6113;42.678;23.334;2022-07-10T05:27:36;94540.78;;;18.24;94.92
12101;BME280;6113;42.678;23.334;2022-07-10T05:30:03;94600.69;;;18.83;94.70
12101;BME280;6113;42.678;23.334;2022-07-10T05:32:30;94623.13;;;18.98;93.82
12101;BME280;6113;42.678;23.334;2022-07-10T05:34:58;94610.97;;;18.82;94.04
12101;BME280;6113;42.678;23.334;2022-07-10T05:37:25;94628.88;;;18.99;94.26
12101;BME280;6113;42.678;23.334;2022-07-10T05:39:52;94608.81;;;18.99;95.40
12101;BME280;6113;42.678;23.334;2022-07-10T05:42:19;94617.53;;;19.32;94.03
12101;BME280;6113;42.678;23.334;2022-07-10T05:44:45;94616.25;;;19.33;92.94
12101;BME280;6113;42.678;23.334;2022-07-10T05:47:12;94618.19;;;19.38;91.27
12101;BME280;6113;42.678;23.334;2022-07-10T05:49:40;94602.94;;;19.37;91.32
12101;BME280;6113;42.678;23.334;2022-07-10T05:52:08;94617.41;;;19.43;90.17
12101;BME280;6113;42.678;23.334;2022-07-10T05:54:35;94611.06;;;19.48;89.68
12101;BME280;6113;42.678;23.334;2022-07-10T05:57:02;94599.06;;;19.46;87.62
12101;BME280;6113;42.678;23.334;2022-07-10T05:59:28;94621.72;;;19.81;87.73
12101;BME280;6113;42.678;23.334;2022-07-10T06:01:55;94596.84;;;19.81;84.93
12101;BME280;6113;42.678;23.334;2022-07-10T06:04:22;94614.69;;;19.80;83.54
12101;BME280;6113;42.678;23.334;2022-07-10T06:06:49;94623.81;;;19.75;83.22
12101;BME280;6113;42.678;23.334;2022-07-10T06:09:17;94605.28;;;19.70;84.42
12101;BME280;6113;42.678;23.334;2022-07-10T06:11:44;94615.59;;;19.88;83.28
12101;BME280;6113;42.678;23.334;2022-07-10T06:14:13;94615.59;;;19.88;83.37
12101;BME280;6113;42.678;23.334;2022-07-10T06:16:40;94616.44;;;19.83;82.28
12101;BME280;6113;42.678;23.334;2022-07-10T06:19:07;94617.81;;;19.71;82.91
12101;BME280;6113;42.678;23.334;2022-07-10T06:21:34;94615.72;;;19.77;82.63
12101;BME280;6113;42.678;23.334;2022-07-10T06:24:01;94616.22;;;19.99;82.00
12101;BME280;6113;42.678;23.334;2022-07-10T06:26:29;94606.88;;;20.21;81.31
12101;BME280;6113;42.678;23.334;2022-07-10T06:28:55;94610.97;;;20.33;81.46
12101;BME280;6113;42.678;23.334;2022-07-10T06:31:22;94606.63;;;20.37;81.68
12101;BME280;6113;42.678;23.334;2022-07-10T06:33:49;94604.66;;;20.51;80.39
12101;BME280;6113;42.678;23.334;2022-07-10T06:36:16;94585.78;;;20.67;78.89
12101;BME280;6113;42.678;23.334;2022-07-10T06:38:43;94604.69;;;20.82;76.67
12101;BME280;6113;42.678;23.334;2022-07-10T06:41:09;94612.25;;;20.94;77.09
12101;BME280;6113;42.678;23.334;2022-07-10T06:43:38;94604.19;;;20.96;76.25
12101;BME280;6113;42.678;23.334;2022-07-10T06:46:05;94590.84;;;20.82;75.77
12101;BME280;6113;42.678;23.334;2022-07-10T06:48:31;94532.44;;;20.54;76.59
12101;BME280;6113;42.678;23.334;2022-07-10T06:50:58;94600.38;;;21.12;75.19
12101;BME280;6113;42.678;23.334;2022-07-10T06:53:24;94591.00;;;21.15;75.26
12101;BME280;6113;42.678;23.334;2022-07-10T06:55:52;94584.63;;;21.20;74.64
12101;BME280;6113;42.678;23.334;2022-07-10T06:58:20;94595.69;;;21.33;74.52
12101;BME280;6113;42.678;23.334;2022-07-10T07:00:48;94600.16;;;21.49;74.33
12101;BME280;6113;42.678;23.334;2022-07-10T07:03:14;94599.44;;;21.61;74.44
12101;BME280;6113;42.678;23.334;2022-07-10T07:05:41;94595.69;;;21.85;73.44
12101;BME280;6113;42.678;23.334;2022-07-10T07:08:08;94597.44;;;22.08;71.91
12101;BME280;6113;42.678;23.334;2022-07-10T07:10:35;94596.88;;;22.22;69.92
12101;BME280;6113;42.678;23.334;2022-07-10T07:13:02;94584.56;;;22.44;70.60
12101;BME280;6113;42.678;23.334;2022-07-10T07:15:29;94580.19;;;22.48;68.74
12101;BME280;6113;42.678;23.334;2022-07-10T07:17:57;94584.13;;;22.73;68.65
12101;BME280;6113;42.678;23.334;2022-07-10T07:20:33;94593.66;;;22.85;68.36
12101;BME280;6113;42.678;23.334;2022-07-10T07:23:17;94599.19;;;22.85;68.43
12101;BME280;6113;42.678;23.334;2022-07-10T07:25:45;94593.72;;;22.93;68.80
12101;BME280;6113;42.678;23.334;2022-07-10T07:28:29;94595.63;;;22.77;68.56
12101;BME280;6113;42.678;23.334;2022-07-10T07:30:56;94587.50;;;22.79;69.03
12101;BME280;6113;42.678;23.334;2022-07-10T07:33:26;94575.63;;;22.79;69.16
12101;BME280;6113;42.678;23.334;2022-07-10T07:35:53;94583.84;;;23.04;69.26
12101;BME280;6113;42.678;23.334;2022-07-10T07:38:20;94589.97;;;23.31;68.71
12101;BME280;6113;42.678;23.334;2022-07-10T07:40:46;94587.81;;;23.44;67.47
12101;BME280;6113;42.678;23.334;2022-07-10T07:43:13;94584.00;;;23.55;67.78
12101;BME280;6113;42.678;23.334;2022-07-10T07:45:40;94558.34;;;23.41;67.35
12101;BME280;6113;42.678;23.334;2022-07-10T07:48:07;94588.88;;;23.34;67.46
12101;BME280;6113;42.678;23.334;2022-07-10T07:50:36;94579.75;;;23.26;67.60
12101;BME280;6113;42.678;23.334;2022-07-10T07:53:03;94583.66;;;23.30;66.08
12101;BME280;6113;42.678;23.334;2022-07-10T07:55:32;94594.94;;;23.04;67.58
12101;BME280;6113;42.678;23.334;2022-07-10T07:57:59;94591.59;;;23.26;67.49
12101;BME280;6113;42.678;23.334;2022-07-10T08:00:28;94570.91;;;23.35;66.49
12101;BME280;6113;42.678;23.334;2022-07-10T08:02:56;94572.94;;;23.62;65.52
12101;BME280;6113;42.678;23.334;2022-07-10T08:05:24;94569.78;;;23.66;63.99
12101;BME280;6113;42.678;23.334;2022-07-10T08:07:53;94575.25;;;23.79;63.71
12101;BME280;6113;42.678;23.334;2022-07-10T08:10:23;94566.63;;;23.97;63.62
12101;BME280;6113;42.678;23.334;2022-07-10T08:12:51;94574.13;;;24.24;62.39
12101;BME280;6113;42.678;23.334;2022-07-10T08:15:19;94572.47;;;24.21;59.61
12101;BME280;6113;42.678;23.334;2022-07-10T08:17:48;94572.13;;;24.32;59.36
12101;BME280;6113;42.678;23.334;2022-07-10T08:20:15;94578.41;;;24.18;59.59
12101;BME280;6113;42.678;23.334;2022-07-10T08:22:42;94578.78;;;24.22;60.21
12101;BME280;6113;42.678;23.334;2022-07-10T08:25:11;94585.31;;;24.39;59.52
12101;BME280;6113;42.678;23.334;2022-07-10T08:27:38;94567.84;;;24.31;60.57
12101;BME280;6113;42.678;23.334;2022-07-10T08:30:06;94561.38;;;24.36;60.02
12101;BME280;6113;42.678;23.334;2022-07-10T08:32:34;94585.19;;;24.52;58.70
12101;BME280;6113;42.678;23.334;2022-07-10T08:35:01;94585.56;;;24.56;59.03
12101;BME280;6113;42.678;23.334;2022-07-10T08:37:28;94532.03;;;24.20;59.27
12101;BME280;6113;42.678;23.334;2022-07-10T08:39:55;94565.16;;;24.68;57.63
12101;BME280;6113;42.678;23.334;2022-07-10T08:42:23;94577.06;;;24.69;57.99
12101;BME280;6113;42.678;23.334;2022-07-10T08:44:51;94577.63;;;24.75;58.07
12101;BME280;6113;42.678;23.334;2022-07-10T08:47:21;94576.66;;;24.65;57.36
12101;BME280;6113;42.678;23.334;2022-07-10T08:49:48;94571.13;;;24.72;55.98
12101;BME280;6113;42.678;23.334;2022-07-10T08:52:25;94549.75;;;24.97;56.23
12101;BME280;6113;42.678;23.334;2022-07-10T08:54:52;94580.63;;;25.37;55.40
12101;BME280;6113;42.678;23.334;2022-07-10T08:57:23;94566.59;;;25.66;56.90
12101;BME280;6113;42.678;23.334;2022-07-10T08:59:50;94539.63;;;25.84;55.38
12101;BME280;6113;42.678;23.334;2022-07-10T09:02:19;94560.63;;;25.92;52.39
12101;BME280;6113;42.678;23.334;2022-07-10T09:04:45;94556.81;;;26.12;53.33
12101;BME280;6113;42.678;23.334;2022-07-10T09:07:12;94559.50;;;26.34;52.61
12101;BME280;6113;42.678;23.334;2022-07-10T09:09:53;94575.84;;;26.38;52.54
12101;BME280;6113;42.678;23.334;2022-07-10T09:12:21;94563.06;;;26.27;52.53
12101;BME280;6113;42.678;23.334;2022-07-10T09:14:51;94564.69;;;26.38;50.90
12101;BME280;6113;42.678;23.334;2022-07-10T09:17:18;94539.06;;;25.85;51.34
12101;BME280;6113;42.678;23.334;2022-07-10T09:19:45;94556.69;;;26.34;50.95
12101;BME280;6113;42.678;23.334;2022-07-10T09:22:12;94544.22;;;26.35;50.26
12101;BME280;6113;42.678;23.334;2022-07-10T09:24:42;94556.44;;;26.55;50.82
12101;BME280;6113;42.678;23.334;2022-07-10T09:27:10;94551.13;;;26.27;51.00
12101;BME280;6113;42.678;23.334;2022-07-10T09:29:48;94544.59;;;26.00;52.33
12101;BME280;6113;42.678;23.334;2022-07-10T09:32:18;94549.06;;;26.35;51.94
12101;BME280;6113;42.678;23.334;2022-07-10T09:34:47;94560.81;;;26.65;51.90
12101;BME280;6113;42.678;23.334;2022-07-10T09:37:18;94530.13;;;26.58;50.36
12101;BME280;6113;42.678;23.334;2022-07-10T09:39:52;94554.81;;;26.44;50.70
12101;BME280;6113;42.678;23.334;2022-07-10T09:42:29;94547.78;;;25.89;51.24
12101;BME280;6113;42.678;23.334;2022-07-10T09:45:16;94552.13;;;25.75;53.46
12101;BME280;6113;42.678;23.334;2022-07-10T09:47:46;94547.25;;;25.83;53.84
12101;BME280;6113;42.678;23.334;2022-07-10T09:50:22;94552.03;;;25.98;53.10
12101;BME280;6113;42.678;23.334;2022-07-10T09:52:50;94537.50;;;25.99;52.00
12101;BME280;6113;42.678;23.334;2022-07-10T09:55:19;94544.69;;;26.17;51.59
12101;BME280;6113;42.678;23.334;2022-07-10T09:57:52;94537.78;;;26.57;51.36
12101;BME280;6113;42.678;23.334;2022-07-10T10:00:22;94522.09;;;26.62;48.97
12101;BME280;6113;42.678;23.334;2022-07-10T10:02:54;94478.53;;;26.34;49.62
12101;BME280;6113;42.678;23.334;2022-07-10T10:05:26;94537.38;;;26.85;49.31
12101;BME280;6113;42.678;23.334;2022-07-10T10:07:54;94518.88;;;26.73;47.54
12101;BME280;6113;42.678;23.334;2022-07-10T10:10:22;94535.28;;;26.44;48.47
12101;BME280;6113;42.678;23.334;2022-07-10T10:12:52;94542.34;;;26.45;49.60
12101;BME280;6113;42.678;23.334;2022-07-10T10:15:22;94530.94;;;26.51;47.93
12101;BME280;6113;42.678;23.334;2022-07-10T10:17:51;94451.88;;;26.09;50.10
12101;BME280;6113;42.678;23.334;2022-07-10T10:20:20;94530.75;;;26.81;49.50
12101;BME280;6113;42.678;23.334;2022-07-10T10:23:09;94524.88;;;26.69;48.43
12101;BME280;6113;42.678;23.334;2022-07-10T10:25:37;94452.91;;;26.21;48.55
12101;BME280;6113;42.678;23.334;2022-07-10T10:28:05;94522.03;;;26.45;47.99
12101;BME280;6113;42.678;23.334;2022-07-10T10:30:36;94520.78;;;25.99;49.52
12101;BME280;6113;42.678;23.334;2022-07-10T10:33:44;94531.31;;;25.61;50.68
12101;BME280;6113;42.678;23.334;2022-07-10T10:36:44;94522.41;;;25.55;51.86
12101;BME280;6113;42.678;23.334;2022-07-10T10:39:12;94522.81;;;25.45;52.17
12101;BME280;6113;42.678;23.334;2022-07-10T10:41:42;94522.97;;;25.47;52.11
12101;BME280;6113;42.678;23.334;2022-07-10T10:44:25;94517.03;;;25.43;52.48
12101;BME280;6113;42.678;23.334;2022-07-10T10:46:55;94518.72;;;25.46;52.28
12101;BME280;6113;42.678;23.334;2022-07-10T10:49:52;94519.28;;;25.44;52.43
12101;BME280;6113;42.678;23.334;2022-07-10T10:52:22;94516.50;;;25.37;51.86
12101;BME280;6113;42.678;23.334;2022-07-10T10:55:03;94529.13;;;25.38;53.40
12101;BME280;6113;42.678;23.334;2022-07-10T10:57:40;94514.66;;;25.02;52.87
12101;BME280;6113;42.678;23.334;2022-07-10T11:00:14;94517.25;;;25.07;54.15
12101;BME280;6113;42.678;23.334;2022-07-10T11:02:42;94513.34;;;25.03;54.05
12101;BME280;6113;42.678;23.334;2022-07-10T11:05:41;94511.34;;;25.11;53.73
12101;BME280;6113;42.678;23.334;2022-07-10T11:08:09;94488.28;;;25.18;52.96
12101;BME280;6113;42.678;23.334;2022-07-10T11:10:38;94504.63;;;25.36;52.90
12101;BME280;6113;42.678;23.334;2022-07-10T11:13:06;94513.38;;;25.18;53.07
12101;BME280;6113;42.678;23.334;2022-07-10T11:15:35;94502.78;;;25.09;51.51
12101;BME280;6113;42.678;23.334;2022-07-10T11:18:04;94509.09;;;25.17;52.34
12101;BME280;6113;42.678;23.334;2022-07-10T11:20:33;94504.81;;;25.08;51.65
12101;BME280;6113;42.678;23.334;2022-07-10T11:26:02;94496.47;;;25.01;51.71
12101;BME280;6113;42.678;23.334;2022-07-10T11:28:51;94497.59;;;24.83;52.89
12101;BME280;6113;42.678;23.334;2022-07-10T11:31:19;94489.25;;;24.83;52.91
12101;BME280;6113;42.678;23.334;2022-07-10T11:33:47;94494.97;;;24.70;54.03
12101;BME280;6113;42.678;23.334;2022-07-10T11:36:16;94499.28;;;24.64;54.07
12101;BME280;6113;42.678;23.334;2022-07-10T11:38:45;94508.56;;;24.66;55.25
12101;BME280;6113;42.678;23.334;2022-07-10T11:41:13;94500.56;;;24.77;55.54
12101;BME280;6113;42.678;23.334;2022-07-10T11:43:47;94506.31;;;24.87;55.34
12101;BME280;6113;42.678;23.334;2022-07-10T11:46:15;94507.25;;;24.97;54.47
12101;BME280;6113;42.678;23.334;2022-07-10T11:48:42;94503.13;;;25.05;53.91
12101;BME280;6113;42.678;23.334;2022-07-10T11:51:21;94504.06;;;25.00;52.88
12101;BME280;6113;42.678;23.334;2022-07-10T11:54:03;94513.53;;;25.05;52.83
12101;BME280;6113;42.678;23.334;2022-07-10T11:56:32;94497.94;;;25.17;53.70
12101;BME280;6113;42.678;23.334;2022-07-10T11:59:00;94507.22;;;25.27;52.40
12101;BME280;6113;42.678;23.334;2022-07-10T12:01:28;94500.56;;;25.15;51.32
12101;BME280;6113;42.678;23.334;2022-07-10T12:03:58;94488.09;;;25.23;51.67
12101;BME280;6113;42.678;23.334;2022-07-10T12:06:26;94491.03;;;25.33;50.99
12101;BME280;6113;42.678;23.334;2022-07-10T12:08:53;94493.25;;;25.42;52.49
12101;BME280;6113;42.678;23.334;2022-07-10T12:11:22;94494.72;;;25.43;52.13
12101;BME280;6113;42.678;23.334;2022-07-10T12:13:50;94487.84;;;25.44;52.32
12101;BME280;6113;42.678;23.334;2022-07-10T12:16:19;94499.19;;;25.38;52.40
12101;BME280;6113;42.678;23.334;2022-07-10T12:18:47;94486.56;;;25.37;51.68
12101;BME280;6113;42.678;23.334;2022-07-10T12:21:15;94495.50;;;25.36;50.13
12101;BME280;6113;42.678;23.334;2022-07-10T12:23:44;94480.50;;;25.09;49.80
12101;BME280;6113;42.678;23.334;2022-07-10T12:26:12;94490.50;;;25.27;50.29
12101;BME280;6113;42.678;23.334;2022-07-10T12:28:55;94493.47;;;25.06;49.24
12101;BME280;6113;42.678;23.334;2022-07-10T12:31:24;94499.25;;;24.93;49.83
12101;BME280;6113;42.678;23.334;2022-07-10T12:33:52;94488.09;;;24.86;50.09
12101;BME280;6113;42.678;23.334;2022-07-10T12:36:20;94495.34;;;25.04;50.01
12101;BME280;6113;42.678;23.334;2022-07-10T12:38:55;94492.03;;;25.13;49.78
12101;BME280;6113;42.678;23.334;2022-07-10T12:41:23;94479.75;;;25.01;49.30
12101;BME280;6113;42.678;23.334;2022-07-10T12:43:53;94499.44;;;24.95;49.35
12101;BME280;6113;42.678;23.334;2022-07-10T12:46:21;94506.50;;;24.96;48.76
12101;BME280;6113;42.678;23.334;2022-07-10T12:49:02;94496.47;;;24.86;48.44
12101;BME280;6113;42.678;23.334;2022-07-10T12:51:31;94495.75;;;24.70;47.78
12101;BME280;6113;42.678;23.334;2022-07-10T12:53:58;94487.59;;;24.58;48.44
12101;BME280;6113;42.678;23.334;2022-07-10T12:56:30;94499.28;;;24.78;48.66
12101;BME280;6113;42.678;23.334;2022-07-10T12:58:59;94497.59;;;24.83;48.17
12101;BME280;6113;42.678;23.334;2022-07-10T13:01:27;94498.69;;;24.95;48.74
12101;BME280;6113;42.678;23.334;2022-07-10T13:03:58;94480.50;;;24.86;48.31
12101;BME280;6113;42.678;23.334;2022-07-10T13:06:26;94492.19;;;25.00;48.12